Berit — ZDHX2 — position and weather

sailwx.info

Track history (hours):
 
Tides and Currents Weather Stations Pressure Air Temp Water Temp Dewpoint Dewpoint Depression Visibility Wind Speed Wind Dir Waves Ship Positions

Berit

Last reported at 2018-Apr-23 14:49 UTC. Time now 2018-Apr-23 15:31 UTC.
Position N 57°48' E 010°01'.

Length 83 m; draft 3.3 m.

Type: Cargo ship. MMSI: 236386000.

Date/timePositionNaut miles runAvg speedWind from/ knotsBaromVisibWave heightAir tempDewpointWater temp
2018-Apr-23 14:49N 57°48' E 010°01'3 8.3
2018-Apr-23 14:29N 57°47' E 010°06'4 8.6
2018-Apr-23 13:59N 57°48' E 010°14'4 8.2
2018-Apr-23 13:29N 57°48' E 010°22'4 8.4
2018-Apr-23 13:00N 57°48' E 010°30'4 8.6
2018-Apr-23 12:30N 57°48' E 010°38'4 7.9
2018-Apr-23 12:00N 57°48' E 010°45'4 8.3
2018-Apr-23 11:30N 57°44' E 010°47'5 9.5
2018-Apr-23 11:00N 57°39' E 010°46'5 9.0
2018-Apr-23 10:30N 57°35' E 010°45'5 9.4
2018-Apr-23 10:00N 57°30' E 010°44'510.1
2018-Apr-23 09:30N 57°25' E 010°44'106 9.7
2018-Apr-22 22:35N 55°39' E 010°36'2 9.9
2018-Apr-22 22:25N 55°38' E 010°34'23 2.3
2018-Apr-22 12:15N 55°22' E 011°02'510.2
2018-Apr-22 11:44N 55°16' E 011°04'210.6
2018-Apr-22 11:30N 55°14' E 011°06'5 9.6
2018-Apr-22 11:00N 55°10' E 011°03'5 9.5
2018-Apr-22 10:30N 55°05' E 011°03'5 9.8
2018-Apr-22 10:00N 55°00' E 011°02'5 9.4
2018-Apr-22 09:30N 54°56' E 010°57'4 8.7
2018-Apr-22 09:00N 54°52' E 010°53'5 9.2
2018-Apr-22 08:30N 54°48' E 010°53'510.2
2018-Apr-22 08:01N 54°43' E 010°53'510.3
2018-Apr-22 07:30N 54°40' E 011°00'510.2
2018-Apr-22 07:00N 54°37' E 011°08'5 9.8
2018-Apr-22 06:30N 54°35' E 011°16'5 9.5
2018-Apr-22 06:00N 54°34' E 011°24'5 9.5
2018-Apr-22 05:30N 54°32' E 011°31'5 9.5
2018-Apr-22 05:00N 54°30' E 011°38'8 9.5
2018-Apr-22 04:11N 54°27' E 011°51'2 9.2
2018-Apr-22 04:00N 54°27' E 011°54'5 9.5
2018-Apr-22 03:30N 54°27' E 012°02'5 8.9
2018-Apr-22 02:54N 54°29' E 012°10'910.0
2018-Apr-22 01:59N 54°37' E 012°16'5 9.5
2018-Apr-22 01:29N 54°40' E 012°23'5 9.8
2018-Apr-22 01:00N 54°43' E 012°30'610.1
2018-Apr-22 00:27N 54°45' E 012°38'13 0.7
2018-Apr-21 06:29N 54°42' E 012°60'510.1
2018-Apr-21 05:57N 54°42' E 012°50'1210.0
2018-Apr-21 04:47N 54°37' E 012°32'5 9.9
2018-Apr-21 04:15N 54°34' E 012°25'2 9.9
2018-Apr-21 04:00N 54°33' E 012°21'5 9.8
2018-Apr-21 03:30N 54°29' E 012°15'510.0
2018-Apr-21 03:00N 54°25' E 012°10'11 9.9
2018-Apr-21 01:54N 54°25' E 011°51'410.2
2018-Apr-21 01:28N 54°25' E 011°44'510.4
2018-Apr-21 01:00N 54°27' E 011°36'510.3
2018-Apr-21 00:30N 54°30' E 011°28'510.2
2018-Apr-21 00:00N 54°32' E 011°21'510.0
2018-Apr-20 23:30N 54°34' E 011°13'5 9.7
2018-Apr-20 23:01N 54°35' E 011°05'510.1
2018-Apr-20 22:30N 54°35' E 010°56'510.3
2018-Apr-20 22:00N 54°34' E 010°47'510.0
2018-Apr-20 21:30N 54°34' E 010°39'18 9.3
2018-Apr-20 19:34N 54°24' E 010°12'13 5.9
2018-Apr-20 17:25N 54°22' E 009°51'3 8.5
2018-Apr-20 17:00N 54°21' E 009°45'4 8.2
2018-Apr-20 16:30N 54°18' E 009°41'4 7.9
2018-Apr-20 16:00N 54°14' E 009°37'4 8.5
2018-Apr-20 15:30N 54°11' E 009°31'4 9.0
2018-Apr-20 15:00N 54°10' E 009°24'6 8.1
2018-Apr-20 14:18N 54°05' E 009°19'3 8.2
2018-Apr-20 13:59N 54°02' E 009°18'4 8.3
2018-Apr-20 13:30N 53°58' E 009°16'4 8.7
2018-Apr-20 13:00N 53°55' E 009°11'2 4.2
2018-Apr-20 12:30N 53°54' E 009°09'0 0.1
2018-Apr-20 12:00N 53°54' E 009°09'3 6.1
2018-Apr-20 11:30N 53°52' E 009°04'4 8.2
2018-Apr-20 11:00N 53°51' E 008°57'4 7.9
2018-Apr-20 10:30N 53°50' E 008°51'3 6.9
2018-Apr-20 10:00N 53°51' E 008°45'3 6.5
2018-Apr-20 09:30N 53°54' E 008°42'3 6.4
2018-Apr-20 09:00N 53°56' E 008°39'3 6.9
2018-Apr-20 08:30N 53°58' E 008°34'4 6.9
2018-Apr-20 07:59N 53°59' E 008°28'3 6.8
2018-Apr-20 07:30N 53°59' E 008°22'4 8.3
2018-Apr-20 07:00N 53°60' E 008°15'5 9.4
2018-Apr-20 06:30N 53°60' E 008°07'4 8.4
2018-Apr-20 06:00N 54°00' E 008°00'4 8.6
2018-Apr-20 05:29N 54°03' E 007°54'4 8.6
2018-Apr-20 05:00N 54°05' E 007°48'5 8.7
2018-Apr-20 04:27N 54°08' E 007°41'4 8.8
2018-Apr-20 03:59N 54°09' E 007°35'217 9.7
2018-Apr-19 05:32N 54°48' E 001°27'110.0
2018-Apr-19 05:25N 54°48' E 001°25'410.0
2018-Apr-19 05:00N 54°49' E 001°18'5 9.9
2018-Apr-19 04:30N 54°49' E 001°09'25 9.6
2018-Apr-19 01:53N 54°51' E 000°26'10 9.1
2018-Apr-19 00:48N 54°51' E 000°09'38 8.8
2018-Apr-18 20:28N 54°53' W 000°57'4 8.8
2018-Apr-18 20:00N 54°54' W 001°04'4 9.1
2018-Apr-18 19:30N 54°55' W 001°12'5 9.4
2018-Apr-18 19:00N 54°56' W 001°20'1 2.4
2018-Apr-18 18:24N 54°55' W 001°22'0 0.0
2018-Apr-18 17:54N 54°55' W 001°22'0 0.0
2018-Apr-18 17:21N 54°55' W 001°22'0 0.0
2018-Apr-18 16:54N 54°55' W 001°22'0 0.0
2018-Apr-18 16:24N 54°55' W 001°22'0 0.0
2018-Apr-18 15:54N 54°55' W 001°22'0 0.0
2018-Apr-18 15:27N 54°55' W 001°22'0 0.0
2018-Apr-18 14:57N 54°55' W 001°22'0 0.0
2018-Apr-18 14:27N 54°55' W 001°22'0 0.0
2018-Apr-18 13:54N 54°55' W 001°22'0 0.0
2018-Apr-18 13:27N 54°55' W 001°22'0 0.0
2018-Apr-18 13:00N 54°55' W 001°22'0 0.0
2018-Apr-18 12:30N 54°55' W 001°22'0 0.0
2018-Apr-18 12:00N 54°55' W 001°22'0 0.0
2018-Apr-18 11:30N 54°55' W 001°22'0 0.0
2018-Apr-18 11:00N 54°55' W 001°22'0 0.0
2018-Apr-18 10:30N 54°55' W 001°22'0 0.0
2018-Apr-18 10:00N 54°55' W 001°22'0 0.0
2018-Apr-18 09:30N 54°55' W 001°22'0 0.0
2018-Apr-18 08:48N 54°55' W 001°22'0 0.0
2018-Apr-18 08:30N 54°55' W 001°22'0 0.0
2018-Apr-18 08:00N 54°55' W 001°22'0 0.0
2018-Apr-18 07:30N 54°55' W 001°22'0 0.0
2018-Apr-18 06:48N 54°55' W 001°22'0 0.0
2018-Apr-18 06:30N 54°55' W 001°22'0 0.0
2018-Apr-18 05:51N 54°55' W 001°22'0 0.0
2018-Apr-18 05:21N 54°55' W 001°22'0 0.0
2018-Apr-18 04:54N 54°55' W 001°22'0 0.0
2018-Apr-18 04:24N 54°55' W 001°22'0 0.0
2018-Apr-18 03:54N 54°55' W 001°22'0 0.0
2018-Apr-18 03:24N 54°55' W 001°22'0 0.0
2018-Apr-18 02:24N 54°55' W 001°22'0 0.0
2018-Apr-18 01:57N 54°55' W 001°22'0 0.0
2018-Apr-18 00:54N 54°55' W 001°22'0 0.0
2018-Apr-18 00:12N 54°55' W 001°22'0 0.0
2018-Apr-17 23:57N 54°55' W 001°22'0 0.0
2018-Apr-17 23:30N 54°55' W 001°22'0 0.0
2018-Apr-17 22:57N 54°55' W 001°22'0 0.0
2018-Apr-17 22:30N 54°55' W 001°22'0 0.0
2018-Apr-17 22:00N 54°55' W 001°22'0 0.0
2018-Apr-17 21:00N 54°55' W 001°22'0 0.0
2018-Apr-17 20:18N 54°55' W 001°22'0 0.0
2018-Apr-17 20:00N 54°55' W 001°22'0 0.0
2018-Apr-17 19:27N 54°55' W 001°22'0 0.0
2018-Apr-17 18:48N 54°55' W 001°22'0 0.0
2018-Apr-17 18:30N 54°55' W 001°22'0 0.0
2018-Apr-17 18:00N 54°55' W 001°22'0 0.0
2018-Apr-17 17:30N 54°55' W 001°22'0 0.0
2018-Apr-17 16:51N 54°55' W 001°22'0 0.0
2018-Apr-17 16:21N 54°55' W 001°22'0 0.0
2018-Apr-17 15:33N 54°55' W 001°22'0 0.0
2018-Apr-17 13:21N 54°55' W 001°22'0 0.0
2018-Apr-17 12:54N 54°55' W 001°22'0 0.0
2018-Apr-17 12:27N 54°55' W 001°22'0 0.0
2018-Apr-17 11:57N 54°55' W 001°22'0 0.0
2018-Apr-17 11:09N 54°55' W 001°22'0 0.0
2018-Apr-17 10:27N 54°55' W 001°22'0 0.0
2018-Apr-17 09:27N 54°55' W 001°22'0 0.0
2018-Apr-17 09:00N 54°55' W 001°22'0 0.0
2018-Apr-17 07:30N 54°55' W 001°22'0 0.0
2018-Apr-17 07:00N 54°55' W 001°22'0 0.0
2018-Apr-17 05:33N 54°55' W 001°22'0 0.1
2018-Apr-17 05:30N 54°55' W 001°22'1 1.1
2018-Apr-17 05:00N 54°55' W 001°22'1 2.5
2018-Apr-17 04:31N 54°56' W 001°20'1 2.2
2018-Apr-17 04:00N 54°57' W 001°19'5 9.5
2018-Apr-17 03:30N 55°01' W 001°19'510.2
2018-Apr-17 03:00N 55°06' W 001°21'510.3
2018-Apr-17 02:30N 55°11' W 001°22'510.1
2018-Apr-17 02:00N 55°16' W 001°23'510.0
2018-Apr-17 01:30N 55°21' W 001°24'510.0
2018-Apr-17 01:00N 55°26' W 001°25'5 9.6
2018-Apr-17 00:30N 55°31' W 001°26'5 9.3
2018-Apr-17 00:00N 55°36' W 001°27'4 8.9
2018-Apr-16 23:30N 55°40' W 001°28'4 8.2
2018-Apr-16 23:00N 55°44' W 001°31'4 8.6
2018-Apr-16 22:30N 55°48' W 001°35'5 9.1
2018-Apr-16 22:00N 55°52' W 001°38'4 8.9
2018-Apr-16 21:30N 55°56' W 001°42'4 9.0
2018-Apr-16 21:00N 55°60' W 001°45'5 9.2
2018-Apr-16 20:30N 56°04' W 001°48'5 9.4
2018-Apr-16 20:00N 56°08' W 001°52'17924.4
2018-Apr-16 12:41N 58°28' W 005°18'140 5.7
2018-Apr-15 12:16N 56°57' W 001°59'310.4
2018-Apr-15 12:00N 56°60' W 001°57'5 9.6
2018-Apr-15 11:30N 57°04' W 001°54'5 9.1
2018-Apr-15 11:00N 57°08' W 001°51'5 9.0
2018-Apr-15 10:29N 57°13' W 001°49'11 9.5
2018-Apr-15 09:18N 57°24' W 001°42'310.0
2018-Apr-15 09:00N 57°26' W 001°40'5 9.7
2018-Apr-15 08:30N 57°31' W 001°39'5 9.4
2018-Apr-15 08:00N 57°36' W 001°41'4 8.7
2018-Apr-15 07:30N 57°40' W 001°43'4 8.4
2018-Apr-15 07:00N 57°44' W 001°47'4 8.3
2018-Apr-15 06:30N 57°47' W 001°52'5 8.6
2018-Apr-15 05:53N 57°51' W 001°57'49 8.7
2018-Apr-15 00:20N 58°32' W 002°47'3 9.3
2018-Apr-15 00:00N 58°35' W 002°50'5 9.2
2018-Apr-14 23:30N 58°39' W 002°55'510.1
2018-Apr-14 23:00N 58°42' W 003°02'5 9.8
2018-Apr-14 22:30N 58°42' W 003°12'256 9.3
2018-Apr-13 18:53N 55°37' W 008°37'5 9.5
2018-Apr-13 18:24N 55°33' W 008°42'4 9.5
2018-Apr-13 18:00N 55°30' W 008°46'  
Track history (hours):
 
Tides and Currents Weather Stations Pressure Air Temp Water Temp Dewpoint Dewpoint Depression Visibility Wind Speed Wind Dir Waves Ship Positions

Berit

Last reported at 2018-Apr-23 14:49 UTC. Time now 2018-Apr-23 15:31 UTC.
Position N 57°48' E 010°01'.

Length 83 m; draft 3.3 m.

Type: Cargo ship. MMSI: 236386000.

Date/timePositionNaut miles runAvg speedWind from/ knotsBaromVisibWave heightAir tempDewpointWater temp
2018-Apr-23 14:49N 57°48' E 010°01'3 8.3
2018-Apr-23 14:29N 57°47' E 010°06'4 8.6
2018-Apr-23 13:59N 57°48' E 010°14'4 8.2
2018-Apr-23 13:29N 57°48' E 010°22'4 8.4
2018-Apr-23 13:00N 57°48' E 010°30'4 8.6
2018-Apr-23 12:30N 57°48' E 010°38'4 7.9
2018-Apr-23 12:00N 57°48' E 010°45'4 8.3
2018-Apr-23 11:30N 57°44' E 010°47'5 9.5
2018-Apr-23 11:00N 57°39' E 010°46'5 9.0
2018-Apr-23 10:30N 57°35' E 010°45'5 9.4
2018-Apr-23 10:00N 57°30' E 010°44'510.1
2018-Apr-23 09:30N 57°25' E 010°44'106 9.7
2018-Apr-22 22:35N 55°39' E 010°36'2 9.9
2018-Apr-22 22:25N 55°38' E 010°34'23 2.3
2018-Apr-22 12:15N 55°22' E 011°02'510.2
2018-Apr-22 11:44N 55°16' E 011°04'210.6
2018-Apr-22 11:30N 55°14' E 011°06'5 9.6
2018-Apr-22 11:00N 55°10' E 011°03'5 9.5
2018-Apr-22 10:30N 55°05' E 011°03'5 9.8
2018-Apr-22 10:00N 55°00' E 011°02'5 9.4
2018-Apr-22 09:30N 54°56' E 010°57'4 8.7
2018-Apr-22 09:00N 54°52' E 010°53'5 9.2
2018-Apr-22 08:30N 54°48' E 010°53'510.2
2018-Apr-22 08:01N 54°43' E 010°53'510.3
2018-Apr-22 07:30N 54°40' E 011°00'510.2
2018-Apr-22 07:00N 54°37' E 011°08'5 9.8
2018-Apr-22 06:30N 54°35' E 011°16'5 9.5
2018-Apr-22 06:00N 54°34' E 011°24'5 9.5
2018-Apr-22 05:30N 54°32' E 011°31'5 9.5
2018-Apr-22 05:00N 54°30' E 011°38'8 9.5
2018-Apr-22 04:11N 54°27' E 011°51'2 9.2
2018-Apr-22 04:00N 54°27' E 011°54'5 9.5
2018-Apr-22 03:30N 54°27' E 012°02'5 8.9
2018-Apr-22 02:54N 54°29' E 012°10'910.0
2018-Apr-22 01:59N 54°37' E 012°16'5 9.5
2018-Apr-22 01:29N 54°40' E 012°23'5 9.8
2018-Apr-22 01:00N 54°43' E 012°30'610.1
2018-Apr-22 00:27N 54°45' E 012°38'13 0.7
2018-Apr-21 06:29N 54°42' E 012°60'510.1
2018-Apr-21 05:57N 54°42' E 012°50'1210.0
2018-Apr-21 04:47N 54°37' E 012°32'5 9.9
2018-Apr-21 04:15N 54°34' E 012°25'2 9.9
2018-Apr-21 04:00N 54°33' E 012°21'5 9.8
2018-Apr-21 03:30N 54°29' E 012°15'510.0
2018-Apr-21 03:00N 54°25' E 012°10'11 9.9
2018-Apr-21 01:54N 54°25' E 011°51'410.2
2018-Apr-21 01:28N 54°25' E 011°44'510.4
2018-Apr-21 01:00N 54°27' E 011°36'510.3
2018-Apr-21 00:30N 54°30' E 011°28'510.2
2018-Apr-21 00:00N 54°32' E 011°21'510.0
2018-Apr-20 23:30N 54°34' E 011°13'5 9.7
2018-Apr-20 23:01N 54°35' E 011°05'510.1
2018-Apr-20 22:30N 54°35' E 010°56'510.3
2018-Apr-20 22:00N 54°34' E 010°47'510.0
2018-Apr-20 21:30N 54°34' E 010°39'18 9.3
2018-Apr-20 19:34N 54°24' E 010°12'13 5.9
2018-Apr-20 17:25N 54°22' E 009°51'3 8.5
2018-Apr-20 17:00N 54°21' E 009°45'4 8.2
2018-Apr-20 16:30N 54°18' E 009°41'4 7.9
2018-Apr-20 16:00N 54°14' E 009°37'4 8.5
2018-Apr-20 15:30N 54°11' E 009°31'4 9.0
2018-Apr-20 15:00N 54°10' E 009°24'6 8.1
2018-Apr-20 14:18N 54°05' E 009°19'3 8.2
2018-Apr-20 13:59N 54°02' E 009°18'4 8.3
2018-Apr-20 13:30N 53°58' E 009°16'4 8.7
2018-Apr-20 13:00N 53°55' E 009°11'2 4.2
2018-Apr-20 12:30N 53°54' E 009°09'0 0.1
2018-Apr-20 12:00N 53°54' E 009°09'3 6.1
2018-Apr-20 11:30N 53°52' E 009°04'4 8.2
2018-Apr-20 11:00N 53°51' E 008°57'4 7.9
2018-Apr-20 10:30N 53°50' E 008°51'3 6.9
2018-Apr-20 10:00N 53°51' E 008°45'3 6.5
2018-Apr-20 09:30N 53°54' E 008°42'3 6.4
2018-Apr-20 09:00N 53°56' E 008°39'3 6.9
2018-Apr-20 08:30N 53°58' E 008°34'4 6.9
2018-Apr-20 07:59N 53°59' E 008°28'3 6.8
2018-Apr-20 07:30N 53°59' E 008°22'4 8.3
2018-Apr-20 07:00N 53°60' E 008°15'5 9.4
2018-Apr-20 06:30N 53°60' E 008°07'4 8.4
2018-Apr-20 06:00N 54°00' E 008°00'4 8.6
2018-Apr-20 05:29N 54°03' E 007°54'4 8.6
2018-Apr-20 05:00N 54°05' E 007°48'5 8.7
2018-Apr-20 04:27N 54°08' E 007°41'4 8.8
2018-Apr-20 03:59N 54°09' E 007°35'217 9.7
2018-Apr-19 05:32N 54°48' E 001°27'110.0
2018-Apr-19 05:25N 54°48' E 001°25'410.0
2018-Apr-19 05:00N 54°49' E 001°18'5 9.9
2018-Apr-19 04:30N 54°49' E 001°09'25 9.6
2018-Apr-19 01:53N 54°51' E 000°26'10 9.1
2018-Apr-19 00:48N 54°51' E 000°09'38 8.8
2018-Apr-18 20:28N 54°53' W 000°57'4 8.8
2018-Apr-18 20:00N 54°54' W 001°04'4 9.1
2018-Apr-18 19:30N 54°55' W 001°12'5 9.4
2018-Apr-18 19:00N 54°56' W 001°20'1 2.4
2018-Apr-18 18:24N 54°55' W 001°22'0 0.0
2018-Apr-18 17:54N 54°55' W 001°22'0 0.0
2018-Apr-18 17:21N 54°55' W 001°22'0 0.0
2018-Apr-18 16:54N 54°55' W 001°22'0 0.0
2018-Apr-18 16:24N 54°55' W 001°22'0 0.0
2018-Apr-18 15:54N 54°55' W 001°22'0 0.0
2018-Apr-18 15:27N 54°55' W 001°22'0 0.0
2018-Apr-18 14:57N 54°55' W 001°22'0 0.0
2018-Apr-18 14:27N 54°55' W 001°22'0 0.0
2018-Apr-18 13:54N 54°55' W 001°22'0 0.0
2018-Apr-18 13:27N 54°55' W 001°22'0 0.0
2018-Apr-18 13:00N 54°55' W 001°22'0 0.0
2018-Apr-18 12:30N 54°55' W 001°22'0 0.0
2018-Apr-18 12:00N 54°55' W 001°22'0 0.0
2018-Apr-18 11:30N 54°55' W 001°22'0 0.0
2018-Apr-18 11:00N 54°55' W 001°22'0 0.0
2018-Apr-18 10:30N 54°55' W 001°22'0 0.0
2018-Apr-18 10:00N 54°55' W 001°22'0 0.0
2018-Apr-18 09:30N 54°55' W 001°22'0 0.0
2018-Apr-18 08:48N 54°55' W 001°22'0 0.0
2018-Apr-18 08:30N 54°55' W 001°22'0 0.0
2018-Apr-18 08:00N 54°55' W 001°22'0 0.0
2018-Apr-18 07:30N 54°55' W 001°22'0 0.0
2018-Apr-18 06:48N 54°55' W 001°22'0 0.0
2018-Apr-18 06:30N 54°55' W 001°22'0 0.0
2018-Apr-18 05:51N 54°55' W 001°22'0 0.0
2018-Apr-18 05:21N 54°55' W 001°22'0 0.0
2018-Apr-18 04:54N 54°55' W 001°22'0 0.0
2018-Apr-18 04:24N 54°55' W 001°22'0 0.0
2018-Apr-18 03:54N 54°55' W 001°22'0 0.0
2018-Apr-18 03:24N 54°55' W 001°22'0 0.0
2018-Apr-18 02:24N 54°55' W 001°22'0 0.0
2018-Apr-18 01:57N 54°55' W 001°22'0 0.0
2018-Apr-18 00:54N 54°55' W 001°22'0 0.0
2018-Apr-18 00:12N 54°55' W 001°22'0 0.0
2018-Apr-17 23:57N 54°55' W 001°22'0 0.0
2018-Apr-17 23:30N 54°55' W 001°22'0 0.0
2018-Apr-17 22:57N 54°55' W 001°22'0 0.0
2018-Apr-17 22:30N 54°55' W 001°22'0 0.0
2018-Apr-17 22:00N 54°55' W 001°22'0 0.0
2018-Apr-17 21:00N 54°55' W 001°22'0 0.0
2018-Apr-17 20:18N 54°55' W 001°22'0 0.0
2018-Apr-17 20:00N 54°55' W 001°22'0 0.0
2018-Apr-17 19:27N 54°55' W 001°22'0 0.0
2018-Apr-17 18:48N 54°55' W 001°22'0 0.0
2018-Apr-17 18:30N 54°55' W 001°22'0 0.0
2018-Apr-17 18:00N 54°55' W 001°22'0 0.0
2018-Apr-17 17:30N 54°55' W 001°22'0 0.0
2018-Apr-17 16:51N 54°55' W 001°22'0 0.0
2018-Apr-17 16:21N 54°55' W 001°22'0 0.0
2018-Apr-17 15:33N 54°55' W 001°22'0 0.0
2018-Apr-17 13:21N 54°55' W 001°22'0 0.0
2018-Apr-17 12:54N 54°55' W 001°22'0 0.0
2018-Apr-17 12:27N 54°55' W 001°22'0 0.0
2018-Apr-17 11:57N 54°55' W 001°22'0 0.0
2018-Apr-17 11:09N 54°55' W 001°22'0 0.0
2018-Apr-17 10:27N 54°55' W 001°22'0 0.0
2018-Apr-17 09:27N 54°55' W 001°22'0 0.0
2018-Apr-17 09:00N 54°55' W 001°22'0 0.0
2018-Apr-17 07:30N 54°55' W 001°22'0 0.0
2018-Apr-17 07:00N 54°55' W 001°22'0 0.0
2018-Apr-17 05:33N 54°55' W 001°22'0 0.1
2018-Apr-17 05:30N 54°55' W 001°22'1 1.1
2018-Apr-17 05:00N 54°55' W 001°22'1 2.5
2018-Apr-17 04:31N 54°56' W 001°20'1 2.2
2018-Apr-17 04:00N 54°57' W 001°19'5 9.5
2018-Apr-17 03:30N 55°01' W 001°19'510.2
2018-Apr-17 03:00N 55°06' W 001°21'510.3
2018-Apr-17 02:30N 55°11' W 001°22'510.1
2018-Apr-17 02:00N 55°16' W 001°23'510.0
2018-Apr-17 01:30N 55°21' W 001°24'510.0
2018-Apr-17 01:00N 55°26' W 001°25'5 9.6
2018-Apr-17 00:30N 55°31' W 001°26'5 9.3
2018-Apr-17 00:00N 55°36' W 001°27'4 8.9
2018-Apr-16 23:30N 55°40' W 001°28'4 8.2
2018-Apr-16 23:00N 55°44' W 001°31'4 8.6
2018-Apr-16 22:30N 55°48' W 001°35'5 9.1
2018-Apr-16 22:00N 55°52' W 001°38'4 8.9
2018-Apr-16 21:30N 55°56' W 001°42'4 9.0
2018-Apr-16 21:00N 55°60' W 001°45'5 9.2
2018-Apr-16 20:30N 56°04' W 001°48'5 9.4
2018-Apr-16 20:00N 56°08' W 001°52'17924.4
2018-Apr-16 12:41N 58°28' W 005°18'140 5.7
2018-Apr-15 12:16N 56°57' W 001°59'310.4
2018-Apr-15 12:00N 56°60' W 001°57'5 9.6
2018-Apr-15 11:30N 57°04' W 001°54'5 9.1
2018-Apr-15 11:00N 57°08' W 001°51'5 9.0
2018-Apr-15 10:29N 57°13' W 001°49'11 9.5
2018-Apr-15 09:18N 57°24' W 001°42'310.0
2018-Apr-15 09:00N 57°26' W 001°40'5 9.7
2018-Apr-15 08:30N 57°31' W 001°39'5 9.4
2018-Apr-15 08:00N 57°36' W 001°41'4 8.7
2018-Apr-15 07:30N 57°40' W 001°43'4 8.4
2018-Apr-15 07:00N 57°44' W 001°47'4 8.3
2018-Apr-15 06:30N 57°47' W 001°52'5 8.6
2018-Apr-15 05:53N 57°51' W 001°57'49 8.7
2018-Apr-15 00:20N 58°32' W 002°47'3 9.3
2018-Apr-15 00:00N 58°35' W 002°50'5 9.2
2018-Apr-14 23:30N 58°39' W 002°55'510.1
2018-Apr-14 23:00N 58°42' W 003°02'5 9.8
2018-Apr-14 22:30N 58°42' W 003°12'256 9.3
2018-Apr-13 18:53N 55°37' W 008°37'5 9.5
2018-Apr-13 18:24N 55°33' W 008°42'4 9.5
2018-Apr-13 18:00N 55°30' W 008°46'  

Dump ship's entire track history